Time;durP1;ratioP1;P1;durP2;ratioP2;P2;SDS_P1;SDS_P2;PMS_P1;PMS_P2;Temp;Humidity;BMP_temperature;BMP_pressure;BME280_temperature;BME280_humidity;BME280_pressure;Samples;Min_cycle;Max_cycle;Signal;HPM_P1;HPM_P2
2021/05/16 00:00:49;;;;;;;2.28;2.03;;;;;;;9.45;100.00;99592.25;4934973;28;20133;-83
2021/05/16 00:03:25;;;;;;;2.47;2.17;;;;;;;9.36;100.00;99592.56;4936824;28;20057;-83
2021/05/16 00:05:57;;;;;;;3.97;2.17;;;;;;;9.30;100.00;99593.63;4947873;28;20039;-83
2021/05/16 00:08:24;;;;;;;2.60;2.13;;;;;;;9.33;100.00;99587.38;4943295;28;20701;-83
2021/05/16 00:10:51;;;;;;;3.85;2.08;;;;;;;9.27;100.00;99593.72;4929878;28;20047;-83
2021/05/16 00:13:18;;;;;;;2.20;1.75;;;;;;;9.23;100.00;99589.44;4924872;28;20056;-83
2021/05/16 00:15:46;;;;;;;2.85;1.80;;;;;;;9.26;100.00;99588.50;4940578;28;20046;-84
2021/05/16 00:18:15;;;;;;;2.90;1.98;;;;;;;9.32;100.00;99583.88;4939608;28;20042;-84
2021/05/16 00:20:48;;;;;;;2.97;2.00;;;;;;;9.24;100.00;99583.25;4938868;28;20051;-83
2021/05/16 00:23:17;;;;;;;3.70;2.25;;;;;;;9.30;100.00;99577.78;4962386;28;20057;-84
2021/05/16 00:25:44;;;;;;;4.20;2.20;;;;;;;9.34;100.00;99586.50;4963814;28;20046;-83
2021/05/16 00:28:11;;;;;;;4.70;2.38;;;;;;;9.32;100.00;99580.38;4940591;28;20042;-83
2021/05/16 00:30:38;;;;;;;2.60;1.77;;;;;;;9.22;100.00;99577.19;4934504;28;20046;-83
2021/05/16 00:33:05;;;;;;;3.67;2.42;;;;;;;9.20;100.00;99567.63;4945327;28;20046;-83
2021/05/16 00:35:50;;;;;;;3.78;2.80;;;;;;;9.21;100.00;99574.59;4953554;28;20548;-84
2021/05/16 00:38:17;;;;;;;5.50;3.35;;;;;;;9.24;100.00;99569.22;4950755;28;20035;-82
2021/05/16 00:40:44;;;;;;;6.10;4.10;;;;;;;9.29;100.00;99570.81;4960719;28;20065;-84
2021/05/16 00:43:12;;;;;;;4.50;3.55;;;;;;;9.31;100.00;99571.63;4930409;28;20047;-84
2021/05/16 00:45:38;;;;;;;3.80;3.38;;;;;;;9.29;100.00;99567.31;4932362;28;20047;-83
2021/05/16 00:48:06;;;;;;;4.32;2.70;;;;;;;9.36;100.00;99566.19;4937430;28;20035;-82
2021/05/16 00:50:39;;;;;;;2.75;2.28;;;;;;;9.42;100.00;99570.44;4954918;28;20106;-82
2021/05/16 00:53:06;;;;;;;4.30;2.35;;;;;;;9.27;100.00;99566.50;4966416;28;20050;-82
2021/05/16 00:55:33;;;;;;;2.47;2.28;;;;;;;9.25;100.00;99563.94;4971447;28;20047;-83
2021/05/16 00:58:01;;;;;;;2.83;2.13;;;;;;;9.25;100.00;99556.03;4944859;28;20043;-82
2021/05/16 01:00:31;;;;;;;4.22;2.40;;;;;;;9.19;100.00;99555.34;4964379;28;20043;-82
2021/05/16 01:02:57;;;;;;;3.65;2.45;;;;;;;9.26;100.00;99556.88;4954904;28;20047;-83
2021/05/16 01:05:24;;;;;;;2.30;1.90;;;;;;;9.20;100.00;99557.06;4928929;28;20047;-83
2021/05/16 01:07:51;;;;;;;2.28;2.05;;;;;;;9.12;100.00;99559.94;4966446;28;20062;-84
2021/05/16 01:10:19;;;;;;;2.30;2.00;;;;;;;9.14;100.00;99562.53;4955016;28;20051;-82
2021/05/16 01:12:49;;;;;;;2.60;2.20;;;;;;;9.07;100.00;99568.91;4952368;28;20686;-83
2021/05/16 01:15:19;;;;;;;2.33;2.13;;;;;;;9.07;100.00;99563.63;4944375;28;20527;-82
2021/05/16 01:17:47;;;;;;;4.50;1.70;;;;;;;8.99;100.00;99570.00;4956630;28;20046;-82
2021/05/16 01:20:27;;;;;;;2.38;1.80;;;;;;;8.95;100.00;99570.16;4960776;28;20049;-83
2021/05/16 01:22:59;;;;;;;2.70;2.15;;;;;;;8.87;100.00;99573.03;4930354;28;20098;-82
2021/05/16 01:25:28;;;;;;;2.55;1.67;;;;;;;8.88;100.00;99568.63;4963499;28;20042;-83
2021/05/16 01:27:54;;;;;;;3.17;2.17;;;;;;;8.90;100.00;99567.66;4942993;28;20035;-83
2021/05/16 01:30:21;;;;;;;4.10;2.15;;;;;;;8.93;100.00;99570.22;4964132;28;20044;-82
2021/05/16 01:32:49;;;;;;;3.58;2.60;;;;;;;8.91;100.00;99576.41;4959946;28;20038;-83
2021/05/16 01:35:17;;;;;;;3.00;2.13;;;;;;;8.86;100.00;99586.25;4962068;28;20285;-83
2021/05/16 01:37:43;;;;;;;2.10;1.88;;;;;;;8.79;100.00;99588.22;4958335;28;20043;-82
2021/05/16 01:40:10;;;;;;;2.33;1.90;;;;;;;8.74;100.00;99583.09;4964875;28;20094;-83
2021/05/16 01:42:43;;;;;;;2.85;1.73;;;;;;;8.72;100.00;99574.34;4961379;28;20034;-83
2021/05/16 01:45:12;;;;;;;2.95;1.90;;;;;;;8.69;100.00;99573.59;4949684;28;20061;-83
2021/05/16 01:47:39;;;;;;;2.25;2.05;;;;;;;8.65;100.00;99585.13;4954763;28;20058;-82
2021/05/16 01:50:12;;;;;;;2.42;1.90;;;;;;;8.63;100.00;99590.44;4936501;28;20515;-82
2021/05/16 01:52:41;;;;;;;2.15;1.95;;;;;;;8.53;100.00;99585.50;4962946;28;20408;-84
2021/05/16 01:55:09;;;;;;;1.67;1.58;;;;;;;8.45;100.00;99591.84;4940923;28;20043;-83
2021/05/16 01:57:37;;;;;;;2.50;1.95;;;;;;;8.39;100.00;99586.75;4952259;28;20046;-83
2021/05/16 02:00:10;;;;;;;2.47;1.90;;;;;;;8.31;100.00;99585.19;4942421;28;20575;-83
2021/05/16 02:02:38;;;;;;;2.13;1.70;;;;;;;8.31;100.00;99587.84;4934987;28;20061;-82
2021/05/16 02:05:06;;;;;;;3.05;1.75;;;;;;;8.26;100.00;99589.75;4931797;28;20043;-83
2021/05/16 02:07:33;;;;;;;2.50;2.00;;;;;;;8.27;100.00;99586.22;4951634;28;20037;-83
2021/05/16 02:09:59;;;;;;;2.63;2.42;;;;;;;8.10;100.00;99584.03;4958425;28;20053;-83
2021/05/16 02:12:27;;;;;;;2.65;2.00;;;;;;;8.08;100.00;99584.09;4963471;28;20070;-83
2021/05/16 02:14:54;;;;;;;2.35;1.83;;;;;;;8.02;100.00;99596.53;4986213;28;20038;-82
2021/05/16 02:17:20;;;;;;;3.50;2.33;;;;;;;7.97;100.00;99590.53;4972770;28;20485;-83
2021/05/16 02:19:47;;;;;;;2.67;2.13;;;;;;;7.88;100.00;99595.13;4961457;28;20058;-83
2021/05/16 02:22:15;;;;;;;3.42;2.03;;;;;;;7.87;100.00;99592.56;4953773;28;20098;-82
2021/05/16 02:24:43;;;;;;;2.47;1.83;;;;;;;7.90;100.00;99603.88;4951839;28;20042;-82
2021/05/16 02:27:10;;;;;;;3.00;1.90;;;;;;;7.90;100.00;99601.25;4967586;28;20046;-82
2021/05/16 02:29:37;;;;;;;2.95;1.77;;;;;;;7.76;100.00;99598.09;4958173;28;20734;-83
2021/05/16 02:32:07;;;;;;;2.10;1.77;;;;;;;7.71;100.00;99594.72;4958704;28;20097;-83
2021/05/16 02:34:34;;;;;;;2.50;1.90;;;;;;;7.73;100.00;99595.53;4951704;28;20042;-83
2021/05/16 02:37:01;;;;;;;3.47;2.58;;;;;;;7.74;100.00;99591.16;4938687;28;20505;-83
2021/05/16 02:39:28;;;;;;;3.92;2.30;;;;;;;7.66;100.00;99595.75;4946912;28;20444;-82
2021/05/16 02:41:55;;;;;;;2.43;2.23;;;;;;;7.71;100.00;99591.22;4944168;28;20054;-83
2021/05/16 02:44:22;;;;;;;1.92;1.70;;;;;;;7.58;100.00;99594.19;4958984;28;20047;-83
2021/05/16 02:46:49;;;;;;;2.37;1.60;;;;;;;7.50;100.00;99590.88;4984750;28;20046;-82
2021/05/16 02:49:15;;;;;;;2.83;1.80;;;;;;;7.43;100.00;99597.19;4952193;28;20043;-83
2021/05/16 02:51:42;;;;;;;1.80;1.60;;;;;;;7.35;100.00;99599.13;4932931;28;20050;-82
2021/05/16 02:54:09;;;;;;;1.93;1.70;;;;;;;7.35;100.00;99601.75;4931579;28;20066;-82
2021/05/16 02:56:36;;;;;;;2.97;1.80;;;;;;;7.29;100.00;99600.13;4962191;28;20452;-82
2021/05/16 02:59:02;;;;;;;2.53;1.60;;;;;;;7.29;100.00;99600.13;4967508;28;20047;-83
2021/05/16 03:01:29;;;;;;;2.40;1.67;;;;;;;7.25;100.00;99601.13;4967194;28;20050;-81
2021/05/16 03:03:56;;;;;;;1.87;1.50;;;;;;;7.22;100.00;99597.69;4949058;28;20137;-82
2021/05/16 03:06:22;;;;;;;3.40;2.30;;;;;;;7.14;100.00;99599.63;4984498;28;20057;-82
2021/05/16 03:08:49;;;;;;;2.47;1.73;;;;;;;7.20;100.00;99604.75;4954792;28;20071;-83
2021/05/16 03:11:16;;;;;;;1.83;1.63;;;;;;;7.13;100.00;99606.66;4933460;28;20042;-82
2021/05/16 03:13:43;;;;;;;2.70;2.20;;;;;;;7.08;100.00;99605.91;5005568;23;20021;-84
2021/05/16 03:16:09;;;;;;;2.33;1.73;;;;;;;7.05;100.00;99603.34;4954625;28;20101;-86
2021/05/16 03:18:36;;;;;;;2.03;1.83;;;;;;;7.07;100.00;99603.34;4941846;28;20046;-83
2021/05/16 03:21:03;;;;;;;2.83;2.00;;;;;;;7.03;100.00;99602.50;4945460;28;20043;-82
2021/05/16 03:23:30;;;;;;;2.30;2.10;;;;;;;7.04;100.00;99602.47;4941401;28;20073;-83
2021/05/16 03:26:00;;;;;;;2.50;2.30;;;;;;;7.05;100.00;99603.34;4939681;28;20052;-83
2021/05/16 03:28:30;;;;;;;3.13;2.43;;;;;;;7.05;100.00;99592.84;4916338;29;20551;-83
2021/05/16 03:30:57;;;;;;;5.23;2.27;;;;;;;6.98;100.00;99592.13;4947550;29;20040;-85
2021/05/16 03:33:26;;;;;;;3.37;2.30;;;;;;;6.87;100.00;99593.25;4934342;28;20043;-84
2021/05/16 03:35:53;;;;;;;4.20;2.43;;;;;;;6.86;100.00;99591.53;4939242;28;20058;-82
2021/05/16 03:38:20;;;;;;;2.83;2.30;;;;;;;6.83;100.00;99599.50;4919162;28;20105;-85
2021/05/16 03:40:47;;;;;;;4.73;2.50;;;;;;;6.88;100.00;99597.59;4925076;28;20087;-85
2021/05/16 03:43:13;;;;;;;3.60;2.30;;;;;;;6.79;100.00;99601.31;4923246;28;20046;-83
2021/05/16 03:45:40;;;;;;;2.87;2.23;;;;;;;6.78;100.00;99607.44;4939133;28;20412;-85
2021/05/16 03:48:07;;;;;;;2.60;2.10;;;;;;;6.72;100.00;99599.69;4943010;28;20483;-84
2021/05/16 03:50:34;;;;;;;2.90;2.23;;;;;;;6.74;100.00;99598.78;4944945;28;20043;-85
2021/05/16 03:53:00;;;;;;;2.27;2.03;;;;;;;6.75;100.00;99603.16;4941773;28;20042;-87
2021/05/16 03:55:27;;;;;;;2.07;1.80;;;;;;;6.75;100.00;99603.16;4939727;28;20051;-83
2021/05/16 03:57:54;;;;;;;2.33;2.13;;;;;;;6.81;100.00;99598.63;4934411;28;20073;-83
2021/05/16 04:00:22;;;;;;;3.10;2.20;;;;;;;6.75;100.00;99587.41;4922458;28;20051;-84
2021/05/16 04:02:49;;;;;;;2.67;1.90;;;;;;;6.80;100.00;99591.66;4941765;28;20313;-86
2021/05/16 04:05:16;;;;;;;2.07;1.90;;;;;;;6.82;100.00;99588.13;4943546;28;20057;-83
2021/05/16 04:07:43;;;;;;;2.90;2.00;;;;;;;6.86;100.00;99594.16;4939755;28;20510;-83
2021/05/16 04:10:11;;;;;;;2.13;1.93;;;;;;;6.83;100.00;99595.09;4941271;28;20046;-85
2021/05/16 04:12:38;;;;;;;2.13;1.90;;;;;;;6.78;100.00;99597.81;4937577;28;20105;-83
2021/05/16 04:15:07;;;;;;;2.60;1.70;;;;;;;6.83;100.00;99597.72;4942732;28;20055;-83
2021/05/16 04:17:34;;;;;;;2.57;2.10;;;;;;;6.89;100.00;99597.56;4939988;28;20134;-83
2021/05/16 04:20:01;;;;;;;2.67;1.97;;;;;;;6.93;100.00;99601.88;4939028;28;20038;-82
2021/05/16 04:22:27;;;;;;;2.50;2.00;;;;;;;6.98;100.00;99605.25;4939273;28;20047;-86
2021/05/16 04:24:59;;;;;;;3.57;2.53;;;;;;;7.04;100.00;99607.72;4924175;28;20105;-83
2021/05/16 04:27:26;;;;;;;4.00;2.20;;;;;;;7.04;100.00;99602.47;4927935;28;20043;-84
2021/05/16 04:29:52;;;;;;;2.57;2.37;;;;;;;7.06;100.00;99602.44;4941060;28;20031;-84
2021/05/16 04:32:19;;;;;;;3.93;2.40;;;;;;;7.15;100.00;99606.63;4940920;28;20432;-84
2021/05/16 04:34:45;;;;;;;2.60;2.40;;;;;;;7.24;100.00;99604.66;4920986;28;20038;-85
2021/05/16 04:37:12;;;;;;;2.80;2.50;;;;;;;7.27;100.00;99608.97;4934302;28;20050;-86
2021/05/16 04:39:39;;;;;;;3.33;3.00;;;;;;;7.34;100.00;99602.66;4923744;28;20042;-86
2021/05/16 04:42:06;;;;;;;3.90;3.50;;;;;;;7.54;100.00;99600.41;4941599;28;20050;-84
2021/05/16 04:44:32;;;;;;;3.93;2.90;;;;;;;7.63;100.00;99601.94;4941673;28;20043;-85
2021/05/16 04:47:00;;;;;;;4.40;3.33;;;;;;;7.84;100.00;99600.53;4950780;28;20189;-84
2021/05/16 04:49:26;;;;;;;3.30;3.00;;;;;;;8.02;100.00;99605.28;4940215;28;20039;-84
2021/05/16 04:51:53;;;;;;;4.03;3.33;;;;;;;8.20;100.00;99598.66;4937094;29;20421;-83
2021/05/16 04:54:20;;;;;;;5.00;3.40;;;;;;;8.27;100.00;99600.22;4938683;28;20054;-83
2021/05/16 04:56:47;;;;;;;4.85;3.55;;;;;;;8.40;100.00;99608.66;4940388;28;20049;-83
2021/05/16 04:59:14;;;;;;;3.38;2.75;;;;;;;8.42;100.00;99605.09;4924510;28;20404;-85
2021/05/16 05:01:41;;;;;;;3.67;3.15;;;;;;;8.54;100.00;99610.91;4928540;28;20047;-86
2021/05/16 05:04:08;;;;;;;3.85;3.28;;;;;;;8.51;100.00;99611.00;4921980;28;20039;-85
2021/05/16 05:06:35;;;;;;;5.03;3.15;;;;;;;8.53;100.00;99619.72;4926072;28;20049;-86
2021/05/16 05:09:05;;;;;;;3.22;2.92;;;;;;;8.60;100.00;99613.38;4940010;28;20043;-84
2021/05/16 05:11:35;;;;;;;4.65;3.38;;;;;;;8.61;100.00;99605.41;4942872;28;20070;-86
2021/05/16 05:14:02;;;;;;;3.92;3.35;;;;;;;8.62;100.00;99607.13;4953766;28;20062;-85
2021/05/16 05:16:28;;;;;;;4.10;2.70;;;;;;;8.62;100.00;99601.88;4919257;28;20046;-86
2021/05/16 05:18:55;;;;;;;4.07;3.20;;;;;;;8.81;100.00;99603.97;4941282;28;20043;-85
2021/05/16 05:21:22;;;;;;;3.83;3.17;;;;;;;9.04;100.00;99601.50;4918901;29;20047;-86
2021/05/16 05:23:48;;;;;;;3.65;3.13;;;;;;;9.15;100.00;99595.88;4928685;28;20043;-86
2021/05/16 05:26:15;;;;;;;4.03;3.33;;;;;;;9.19;100.00;99602.78;4925887;28;20050;-86
2021/05/16 05:28:42;;;;;;;3.72;3.17;;;;;;;9.20;100.00;99594.81;4942302;28;20043;-84
2021/05/16 05:31:09;;;;;;;3.60;3.05;;;;;;;9.43;100.00;99599.38;4944444;28;20046;-84
2021/05/16 05:33:36;;;;;;;3.47;2.95;;;;;;;9.57;100.00;99591.84;4944585;28;20042;-85
2021/05/16 05:36:04;;;;;;;3.88;3.10;;;;;;;9.67;100.00;99587.16;4941940;28;20061;-84
2021/05/16 05:38:30;;;;;;;4.03;3.45;;;;;;;9.71;100.00;99595.81;4945577;28;20587;-85
2021/05/16 05:40:57;;;;;;;3.95;2.95;;;;;;;9.72;100.00;99584.34;4927224;28;20054;-86
2021/05/16 05:43:24;;;;;;;4.57;3.05;;;;;;;9.78;100.00;99590.28;4947305;28;20039;-86
2021/05/16 05:45:50;;;;;;;3.47;2.83;;;;;;;9.91;100.00;99603.88;4942035;28;20039;-85
2021/05/16 05:48:17;;;;;;;3.42;3.08;;;;;;;10.12;100.00;99599.66;4942750;28;20081;-84
2021/05/16 05:50:44;;;;;;;3.33;2.83;;;;;;;10.28;100.00;99600.84;4933437;28;20053;-85
2021/05/16 05:53:11;;;;;;;3.15;2.85;;;;;;;10.66;100.00;99591.50;4943089;28;20047;-85
2021/05/16 05:55:37;;;;;;;35.10;21.35;;;;;;;10.99;99.90;99596.41;4942055;28;20042;-83
2021/05/16 05:58:04;;;;;;;53.95;35.78;;;;;;;12.69;92.98;99592.69;4941617;28;20050;-85
2021/05/16 06:00:31;;;;;;;13.38;9.00;;;;;;;13.55;87.52;99592.16;4954700;28;20118;-86
2021/05/16 06:02:58;;;;;;;5.28;3.30;;;;;;;13.74;83.92;99592.94;4939151;28;20047;-85
2021/05/16 06:05:26;;;;;;;4.00;2.53;;;;;;;13.57;83.55;99600.91;4940145;28;20047;-84
2021/05/16 06:07:57;;;;;;;3.53;2.25;;;;;;;13.27;84.14;99608.53;4925066;28;20062;-84
2021/05/16 06:10:24;;;;;;;2.35;2.05;;;;;;;13.17;84.78;99605.44;4940026;28;20043;-85
2021/05/16 06:12:52;;;;;;;2.38;2.15;;;;;;;13.34;82.09;99604.66;4941280;28;20049;-84
2021/05/16 06:15:22;;;;;;;2.28;1.63;;;;;;;13.64;81.41;99593.50;4954037;28;20043;-84
2021/05/16 06:17:48;;;;;;;5.88;2.00;;;;;;;13.79;83.34;99600.69;4940752;28;20098;-84
2021/05/16 06:20:15;;;;;;;3.13;1.90;;;;;;;13.99;82.15;99597.88;4938758;28;20047;-85
2021/05/16 06:22:42;;;;;;;3.40;1.95;;;;;;;13.96;78.07;99600.69;4935479;28;20424;-85
2021/05/16 06:25:09;;;;;;;2.20;1.85;;;;;;;13.88;78.03;99602.88;4910355;28;20106;-85
2021/05/16 06:27:36;;;;;;;4.13;2.55;;;;;;;13.92;78.48;99607.06;4930221;28;20512;-86
2021/05/16 06:30:04;;;;;;;3.10;2.40;;;;;;;14.01;79.61;99606.59;4937325;28;20105;-84
2021/05/16 06:32:31;;;;;;;3.10;2.00;;;;;;;14.43;78.91;99599.13;4932181;28;20472;-84
2021/05/16 06:34:58;;;;;;;3.00;2.10;;;;;;;14.77;75.46;99600.88;4939400;28;20061;-85
2021/05/16 06:37:25;;;;;;;3.05;2.40;;;;;;;15.15;76.78;99602.28;4939767;28;20042;-84
2021/05/16 06:39:51;;;;;;;2.15;1.95;;;;;;;15.32;74.63;99608.47;4937769;28;20031;-84
2021/05/16 06:42:19;;;;;;;3.28;2.25;;;;;;;15.23;72.11;99604.50;4938245;28;20232;-84
2021/05/16 06:44:46;;;;;;;2.28;2.05;;;;;;;15.20;72.28;99604.66;4934358;28;20106;-85
2021/05/16 06:47:13;;;;;;;2.67;2.05;;;;;;;15.11;71.95;99600.72;4953791;28;20065;-85
2021/05/16 06:49:39;;;;;;;3.97;1.85;;;;;;;15.18;70.89;99601.25;4935856;28;20051;-85
2021/05/16 06:52:06;;;;;;;5.30;2.10;;;;;;;15.26;72.37;99603.47;4939434;28;20039;-84
2021/05/16 06:54:33;;;;;;;2.78;1.75;;;;;;;15.19;73.46;99601.16;4936469;28;20054;-85
2021/05/16 06:56:59;;;;;;;2.60;1.90;;;;;;;15.18;73.05;99604.75;4940737;28;20039;-86
2021/05/16 06:59:26;;;;;;;1.92;1.65;;;;;;;15.18;71.25;99599.44;4922390;28;20046;-84
2021/05/16 07:01:53;;;;;;;3.20;1.80;;;;;;;15.26;72.80;99600.81;4923750;28;20045;-84
2021/05/16 07:04:20;;;;;;;2.50;1.40;;;;;;;15.17;71.59;99600.38;4918398;28;20040;-84
2021/05/16 07:06:46;;;;;;;2.38;1.50;;;;;;;15.23;73.32;99599.19;4929372;29;20047;-84
2021/05/16 07:09:13;;;;;;;5.95;2.55;;;;;;;15.27;70.12;99598.06;4946643;28;20051;-84
2021/05/16 07:11:40;;;;;;;2.25;1.50;;;;;;;15.21;72.48;99601.91;4916339;28;20621;-84
2021/05/16 07:14:07;;;;;;;2.13;1.50;;;;;;;15.19;73.00;99601.16;4937529;28;20050;-84
2021/05/16 07:16:33;;;;;;;2.60;1.90;;;;;;;15.23;73.05;99603.66;4954957;28;20608;-85
2021/05/16 07:19:02;;;;;;;1.52;1.30;;;;;;;15.54;72.95;99598.28;4939867;28;20050;-84
2021/05/16 07:21:28;;;;;;;2.83;1.70;;;;;;;15.90;70.35;99591.81;4923592;28;20512;-84
2021/05/16 07:23:59;;;;;;;3.85;1.60;;;;;;;16.14;69.09;99594.78;4935365;28;20047;-86
2021/05/16 07:26:26;;;;;;;2.22;1.20;;;;;;;16.46;70.40;99598.16;4938551;28;20133;-85
2021/05/16 07:28:53;;;;;;;2.10;1.60;;;;;;;16.63;67.51;99595.31;4922379;29;20115;-85
2021/05/16 07:31:20;;;;;;;4.25;2.90;;;;;;;16.73;66.13;99600.94;4935180;28;20043;-83
2021/05/16 07:33:47;;;;;;;2.25;1.90;;;;;;;16.83;65.97;99591.44;4926183;28;20038;-84
2021/05/16 07:36:14;;;;;;;2.45;1.58;;;;;;;16.89;66.85;99591.03;4935176;28;20057;-85
2021/05/16 07:38:40;;;;;;;4.05;1.60;;;;;;;16.48;62.04;99591.81;4940884;28;20058;-86
2021/05/16 07:41:07;;;;;;;2.50;1.60;;;;;;;16.91;66.12;99586.47;4917956;28;20047;-86
2021/05/16 07:43:34;;;;;;;1.50;1.20;;;;;;;17.04;64.41;99586.53;4934454;28;20039;-86
2021/05/16 07:46:01;;;;;;;2.92;1.20;;;;;;;17.15;64.55;99587.56;4937320;28;20701;-86
2021/05/16 07:48:30;;;;;;;1.45;1.35;;;;;;;17.20;60.89;99581.91;4938365;28;20127;-85
2021/05/16 07:50:59;;;;;;;2.65;1.85;;;;;;;17.23;63.34;99587.03;4912778;28;20082;-86
2021/05/16 07:53:28;;;;;;;3.97;1.40;;;;;;;17.22;62.65;99584.47;4938312;28;20500;-86
2021/05/16 07:55:55;;;;;;;2.33;1.40;;;;;;;17.21;60.85;99586.28;4934484;28;20183;-85
2021/05/16 07:58:21;;;;;;;2.38;1.38;;;;;;;17.36;64.38;99581.78;4939569;28;20049;-86
2021/05/16 08:00:48;;;;;;;2.10;1.35;;;;;;;17.63;61.37;99581.75;4939927;28;20062;-86
2021/05/16 08:03:15;;;;;;;2.25;1.27;;;;;;;17.67;60.66;99580.63;4934746;28;20050;-86
2021/05/16 08:05:42;;;;;;;2.60;1.20;;;;;;;17.52;59.09;99574.47;4921372;28;20056;-86
2021/05/16 08:08:08;;;;;;;2.13;1.20;;;;;;;17.50;60.18;99581.75;4955348;28;20030;-86
2021/05/16 08:10:35;;;;;;;1.85;1.23;;;;;;;17.27;62.29;99585.91;4934930;28;20516;-87
2021/05/16 08:13:03;;;;;;;1.63;1.15;;;;;;;16.92;61.06;99585.50;4920312;28;20051;-88
2021/05/16 08:15:33;;;;;;;1.50;1.35;;;;;;;16.83;62.87;99581.63;4952177;28;20070;-87
2021/05/16 08:18:03;;;;;;;1.70;1.40;;;;;;;16.83;62.28;99576.28;4937381;28;20101;-85
2021/05/16 08:20:33;;;;;;;2.03;1.00;;;;;;;16.68;62.12;99582.56;4936137;28;20223;-86
2021/05/16 08:23:00;;;;;;;2.28;1.48;;;;;;;16.63;62.81;99578.44;4937985;28;20504;-86
2021/05/16 08:25:27;;;;;;;1.58;1.20;;;;;;;16.55;62.21;99582.44;4938855;28;20035;-86
2021/05/16 08:27:55;;;;;;;2.13;0.98;;;;;;;16.44;64.97;99584.06;4936033;28;20043;-87
2021/05/16 08:30:21;;;;;;;1.70;1.40;;;;;;;16.37;63.45;99578.25;4928230;28;20058;-86
2021/05/16 08:32:48;;;;;;;3.72;1.30;;;;;;;16.20;63.10;99576.63;4935147;28;20182;-87
2021/05/16 08:35:15;;;;;;;1.35;1.23;;;;;;;16.02;63.38;99588.41;4927673;28;20070;-86
2021/05/16 08:37:43;;;;;;;3.17;1.20;;;;;;;15.83;64.81;99590.44;4919801;28;20051;-86
2021/05/16 08:40:10;;;;;;;1.35;1.05;;;;;;;15.61;67.03;99588.16;4944115;28;20500;-85
2021/05/16 08:42:37;;;;;;;3.90;1.80;;;;;;;15.34;70.89;99609.22;4953099;28;20054;-84
2021/05/16 08:45:12;;;;;;;13.13;8.30;;;;;;;14.94;74.05;99611.44;4922770;28;20043;-85
2021/05/16 08:47:41;;;;;;;25.05;15.63;;;;;;;14.41;80.05;99631.13;4945166;28;20113;-84
2021/05/16 08:50:11;;;;;;;4.93;2.80;;;;;;;13.99;82.02;99627.09;4942056;28;20042;-84
2021/05/16 08:52:38;;;;;;;3.50;3.20;;;;;;;13.68;84.64;99627.75;4936855;28;20042;-85
2021/05/16 08:55:06;;;;;;;2.50;2.08;;;;;;;13.52;88.87;99632.09;4922010;28;20043;-85
2021/05/16 08:57:38;;;;;;;1.70;1.60;;;;;;;13.42;91.85;99628.19;4938736;28;20050;-84
2021/05/16 09:00:17;;;;;;;3.15;1.67;;;;;;;13.43;92.62;99627.25;4918565;28;20043;-85
2021/05/16 09:03:05;;;;;;;5.78;5.28;;;;;;;13.70;95.72;99622.34;4937906;28;20508;-86
2021/05/16 09:05:49;;;;;;;3.38;2.22;;;;;;;13.92;96.16;99617.69;4945177;28;21821;-87
2021/05/16 09:08:22;;;;;;;3.40;2.10;;;;;;;14.12;95.21;99616.66;4934365;29;20102;-89
2021/05/16 09:10:56;;;;;;;2.45;2.03;;;;;;;14.25;94.03;99620.44;4936688;28;20042;-87
2021/05/16 09:13:24;;;;;;;3.45;3.15;;;;;;;14.26;91.69;99621.28;4939178;28;20054;-88
2021/05/16 09:16:06;;;;;;;2.45;2.05;;;;;;;14.36;93.46;99618.06;4959442;28;20050;-87
2021/05/16 09:18:39;;;;;;;2.63;2.17;;;;;;;14.40;93.63;99629.41;4958758;28;20117;-83
2021/05/16 09:21:31;;;;;;;4.20;2.35;;;;;;;14.46;94.32;99618.50;4946364;28;20051;-84
2021/05/16 09:24:01;;;;;;;2.92;2.33;;;;;;;14.54;93.71;99620.72;4943478;28;20046;-86
2021/05/16 09:26:31;;;;;;;2.58;2.38;;;;;;;14.58;91.90;99617.81;4944736;28;20043;-83
2021/05/16 09:29:42;;;;;;;2.65;2.20;;;;;;;14.58;90.15;99619.63;4925934;28;20522;-83
2021/05/16 09:32:09;;;;;;;2.83;2.55;;;;;;;14.85;89.98;99622.59;4942023;28;20046;-86
2021/05/16 09:34:39;;;;;;;3.03;2.50;;;;;;;14.91;89.13;99623.13;4940359;28;20047;-86
2021/05/16 09:37:08;;;;;;;3.42;2.20;;;;;;;15.11;89.97;99618.47;4922324;28;20050;-84
2021/05/16 09:39:35;;;;;;;7.07;2.50;;;;;;;15.29;90.91;99617.44;4936226;28;20051;-89
2021/05/16 09:42:12;;;;;;;2.60;2.40;;;;;;;15.47;87.24;99621.75;4943075;28;20496;-85
2021/05/16 09:44:45;;;;;;;4.47;2.60;;;;;;;15.63;90.39;99623.53;4932302;28;20055;-86
2021/05/16 09:47:26;;;;;;;2.72;2.13;;;;;;;15.86;88.14;99625.72;4941039;28;20043;-84
2021/05/16 09:49:59;;;;;;;2.80;2.20;;;;;;;16.09;84.99;99634.19;4926061;28;20058;-86
2021/05/16 09:52:35;;;;;;;4.40;2.47;;;;;;;16.35;85.17;99621.97;4928314;28;20038;-85
2021/05/16 09:55:02;;;;;;;2.55;1.83;;;;;;;16.55;83.96;99626.91;4928559;28;20051;-85
2021/05/16 09:57:36;;;;;;;2.35;1.95;;;;;;;16.84;83.17;99626.00;4943860;28;20073;-83
2021/05/16 10:00:14;;;;;;;3.80;2.15;;;;;;;17.06;83.68;99612.16;4959203;28;20051;-85
2021/05/16 10:02:41;;;;;;;2.40;2.20;;;;;;;17.14;78.73;99619.66;4930821;28;20046;-85
2021/05/16 10:05:10;;;;;;;3.92;2.20;;;;;;;16.95;76.72;99611.13;4949816;28;20571;-83
2021/05/16 10:07:42;;;;;;;4.53;1.95;;;;;;;17.12;78.71;99608.25;4955227;28;20560;-82
2021/05/16 10:10:26;;;;;;;2.28;1.83;;;;;;;17.19;76.40;99614.06;4925340;28;20047;-85
2021/05/16 10:13:18;;;;;;;3.78;2.13;;;;;;;16.82;67.26;99603.91;4940053;28;20039;-86
2021/05/16 10:15:45;;;;;;;3.20;2.22;;;;;;;16.77;72.79;99608.69;4923272;28;20047;-85
2021/05/16 10:18:12;;;;;;;2.95;2.00;;;;;;;16.64;72.73;99610.34;4953990;28;20058;-85
2021/05/16 10:20:41;;;;;;;2.08;1.88;;;;;;;16.48;74.04;99609.56;4932429;28;20765;-84
2021/05/16 10:23:10;;;;;;;2.58;1.90;;;;;;;16.16;72.89;99601.75;4937207;28;20492;-85
2021/05/16 10:25:43;;;;;;;2.25;1.80;;;;;;;15.99;75.46;99610.75;4920986;28;20117;-84
2021/05/16 10:28:11;;;;;;;2.33;2.10;;;;;;;15.89;77.78;99612.25;4936695;28;20122;-84
2021/05/16 10:30:41;;;;;;;2.83;2.00;;;;;;;15.86;80.07;99609.75;4918443;28;20039;-84
2021/05/16 10:33:31;;;;;;;2.33;1.90;;;;;;;15.75;80.72;99599.75;4940268;28;20062;-88
2021/05/16 10:35:58;;;;;;;3.25;2.20;;;;;;;15.66;79.35;99604.75;4929643;29;20126;-87
2021/05/16 10:38:32;;;;;;;2.65;2.45;;;;;;;15.57;80.00;99595.47;4942681;28;20508;-85
2021/05/16 10:41:18;;;;;;;;;;;;;;;15.43;80.51;99608.69;4944665;28;20030;-85
2021/05/16 10:43:45;;;;;;;3.83;1.90;;;;;;;15.34;81.61;99603.91;4960220;28;19922;-87
2021/05/16 10:46:42;;;;;;;2.53;2.00;;;;;;;15.32;80.75;99605.78;4937105;28;20046;-86
2021/05/16 10:49:25;;;;;;;2.50;1.70;;;;;;;15.25;83.00;99605.28;4950643;28;20045;-84
2021/05/16 10:51:52;;;;;;;2.25;1.98;;;;;;;15.33;81.17;99602.19;4938732;28;20090;-85
2021/05/16 10:54:29;;;;;;;2.17;1.70;;;;;;;15.38;79.44;99602.75;4952058;28;20043;-85
2021/05/16 10:57:13;;;;;;;2.40;1.45;;;;;;;15.42;79.01;99604.31;4936679;29;20051;-84
2021/05/16 10:59:40;;;;;;;2.00;1.75;;;;;;;15.64;79.43;99602.19;4939813;28;20057;-86
2021/05/16 11:02:16;;;;;;;2.30;1.80;;;;;;;15.84;78.77;99594.81;4940357;28;20043;-85
2021/05/16 11:05:03;;;;;;;2.00;1.80;;;;;;;16.04;76.44;99598.00;4931269;28;20508;-84
2021/05/16 11:07:45;;;;;;;1.70;1.60;;;;;;;16.24;72.01;99588.81;4963738;28;20045;-85
2021/05/16 11:10:38;;;;;;;3.72;1.63;;;;;;;16.73;77.40;99587.59;4948224;28;20047;-85
2021/05/16 11:13:12;;;;;;;3.22;1.75;;;;;;;17.09;69.45;99579.97;4931365;28;20102;-84
2021/05/16 11:15:50;;;;;;;2.03;1.50;;;;;;;17.19;70.32;99580.22;4940378;28;20105;-84
2021/05/16 11:18:19;;;;;;;1.50;1.40;;;;;;;17.10;68.28;99575.47;4940067;28;20055;-86
2021/05/16 11:21:07;;;;;;;1.42;1.33;;;;;;;17.07;67.41;99584.53;4939011;28;20074;-84
2021/05/16 11:23:38;;;;;;;3.30;2.08;;;;;;;17.20;67.80;99579.25;4936750;28;20047;-84
2021/05/16 11:26:20;;;;;;;1.63;1.38;;;;;;;17.20;66.90;99581.91;4936240;28;20138;-86
2021/05/16 11:28:49;;;;;;;2.22;1.42;;;;;;;17.10;66.91;99568.31;4953617;28;20507;-85
2021/05/16 11:31:21;;;;;;;2.95;1.95;;;;;;;17.05;63.23;99574.91;4939196;28;20038;-84
2021/05/16 11:33:53;;;;;;;5.35;1.92;;;;;;;17.00;65.42;99575.22;4941942;28;20039;-85
2021/05/16 11:36:25;;;;;;;3.38;1.60;;;;;;;16.74;66.05;99598.22;4941676;28;20099;-85
2021/05/16 11:38:54;;;;;;;5.18;2.00;;;;;;;16.14;70.43;99606.28;4922515;28;20077;-85
2021/05/16 11:41:40;;;;;;;4.18;1.73;;;;;;;15.49;74.54;99605.69;4938835;28;20046;-83
2021/05/16 11:44:11;;;;;;;3.10;1.30;;;;;;;15.17;76.87;99611.03;4953849;28;20420;-84